sensor_id;sensor_type;location;lat;lon;timestamp;P1;durP1;ratioP1;P2;durP2;ratioP2
11711;SDS011;5912;51.034;6.984;2023-09-08T00:00:22;4.70;;;4.25;;
11711;SDS011;5912;51.034;6.984;2023-09-08T00:02:47;4.38;;;3.95;;
11711;SDS011;5912;51.034;6.984;2023-09-08T00:05:12;4.47;;;4.00;;
11711;SDS011;5912;51.034;6.984;2023-09-08T00:07:38;4.90;;;3.97;;
11711;SDS011;5912;51.034;6.984;2023-09-08T00:10:03;4.60;;;3.90;;
11711;SDS011;5912;51.034;6.984;2023-09-08T00:12:29;4.32;;;3.92;;
11711;SDS011;5912;51.034;6.984;2023-09-08T00:14:54;6.18;;;4.30;;
11711;SDS011;5912;51.034;6.984;2023-09-08T00:17:20;3.80;;;3.40;;
11711;SDS011;5912;51.034;6.984;2023-09-08T00:19:45;5.28;;;3.88;;
11711;SDS011;5912;51.034;6.984;2023-09-08T00:22:10;5.28;;;4.40;;
11711;SDS011;5912;51.034;6.984;2023-09-08T00:24:36;4.90;;;4.40;;
11711;SDS011;5912;51.034;6.984;2023-09-08T00:27:01;6.13;;;4.70;;
11711;SDS011;5912;51.034;6.984;2023-09-08T00:29:26;4.60;;;4.05;;
11711;SDS011;5912;51.034;6.984;2023-09-08T00:31:52;4.88;;;4.35;;
11711;SDS011;5912;51.034;6.984;2023-09-08T00:34:17;4.25;;;3.80;;
11711;SDS011;5912;51.034;6.984;2023-09-08T00:36:42;4.63;;;4.07;;
11711;SDS011;5912;51.034;6.984;2023-09-08T00:39:08;5.63;;;4.20;;
11711;SDS011;5912;51.034;6.984;2023-09-08T00:41:33;4.47;;;3.80;;
11711;SDS011;5912;51.034;6.984;2023-09-08T00:43:59;4.72;;;3.90;;
11711;SDS011;5912;51.034;6.984;2023-09-08T00:46:24;5.07;;;4.00;;
11711;SDS011;5912;51.034;6.984;2023-09-08T00:48:52;5.40;;;4.13;;
11711;SDS011;5912;51.034;6.984;2023-09-08T00:51:18;4.85;;;4.32;;
11711;SDS011;5912;51.034;6.984;2023-09-08T00:53:44;5.68;;;4.05;;
11711;SDS011;5912;51.034;6.984;2023-09-08T00:56:09;4.85;;;4.22;;
11711;SDS011;5912;51.034;6.984;2023-09-08T00:58:36;5.85;;;4.30;;
11711;SDS011;5912;51.034;6.984;2023-09-08T01:01:01;5.30;;;4.20;;
11711;SDS011;5912;51.034;6.984;2023-09-08T01:03:27;4.70;;;4.15;;
11711;SDS011;5912;51.034;6.984;2023-09-08T01:05:52;4.90;;;4.15;;
11711;SDS011;5912;51.034;6.984;2023-09-08T01:08:18;4.78;;;4.22;;
11711;SDS011;5912;51.034;6.984;2023-09-08T01:10:44;7.28;;;4.43;;
11711;SDS011;5912;51.034;6.984;2023-09-08T01:13:10;4.53;;;3.85;;
11711;SDS011;5912;51.034;6.984;2023-09-08T01:15:36;5.47;;;4.57;;
11711;SDS011;5912;51.034;6.984;2023-09-08T01:18:01;6.63;;;4.38;;
11711;SDS011;5912;51.034;6.984;2023-09-08T01:26:13;6.88;;;4.60;;
11711;SDS011;5912;51.034;6.984;2023-09-08T01:28:43;4.75;;;4.28;;
11711;SDS011;5912;51.034;6.984;2023-09-08T01:31:13;4.72;;;4.22;;
11711;SDS011;5912;51.034;6.984;2023-09-08T01:33:40;5.03;;;4.25;;
11711;SDS011;5912;51.034;6.984;2023-09-08T01:36:06;4.38;;;3.97;;
11711;SDS011;5912;51.034;6.984;2023-09-08T01:38:32;7.15;;;4.13;;
11711;SDS011;5912;51.034;6.984;2023-09-08T01:40:58;4.60;;;4.20;;
11711;SDS011;5912;51.034;6.984;2023-09-08T01:43:23;5.85;;;4.53;;
11711;SDS011;5912;51.034;6.984;2023-09-08T01:45:49;4.30;;;3.70;;
11711;SDS011;5912;51.034;6.984;2023-09-08T01:48:14;4.78;;;4.30;;
11711;SDS011;5912;51.034;6.984;2023-09-08T01:50:39;4.95;;;4.25;;
11711;SDS011;5912;51.034;6.984;2023-09-08T01:53:04;4.78;;;4.22;;
11711;SDS011;5912;51.034;6.984;2023-09-08T01:55:30;4.75;;;4.30;;
11711;SDS011;5912;51.034;6.984;2023-09-08T01:57:55;4.97;;;4.40;;
11711;SDS011;5912;51.034;6.984;2023-09-08T02:00:21;5.85;;;4.32;;
11711;SDS011;5912;51.034;6.984;2023-09-08T02:02:46;6.18;;;4.07;;
11711;SDS011;5912;51.034;6.984;2023-09-08T02:05:11;5.82;;;4.28;;
11711;SDS011;5912;51.034;6.984;2023-09-08T02:07:36;5.90;;;4.93;;
11711;SDS011;5912;51.034;6.984;2023-09-08T02:10:02;5.25;;;4.68;;
11711;SDS011;5912;51.034;6.984;2023-09-08T02:12:27;5.60;;;4.90;;
11711;SDS011;5912;51.034;6.984;2023-09-08T02:14:53;6.88;;;4.50;;
11711;SDS011;5912;51.034;6.984;2023-09-08T02:17:18;6.00;;;4.80;;
11711;SDS011;5912;51.034;6.984;2023-09-08T02:19:43;6.47;;;4.93;;
11711;SDS011;5912;51.034;6.984;2023-09-08T02:22:09;5.18;;;4.68;;
11711;SDS011;5912;51.034;6.984;2023-09-08T02:24:34;5.18;;;4.40;;
11711;SDS011;5912;51.034;6.984;2023-09-08T02:26:59;5.03;;;4.53;;
11711;SDS011;5912;51.034;6.984;2023-09-08T02:29:25;5.00;;;4.53;;
11711;SDS011;5912;51.034;6.984;2023-09-08T02:31:50;5.18;;;4.40;;
11711;SDS011;5912;51.034;6.984;2023-09-08T02:34:15;5.55;;;4.75;;
11711;SDS011;5912;51.034;6.984;2023-09-08T02:36:41;5.88;;;4.85;;
11711;SDS011;5912;51.034;6.984;2023-09-08T02:39:06;5.32;;;4.70;;
11711;SDS011;5912;51.034;6.984;2023-09-08T02:41:32;5.68;;;5.07;;
11711;SDS011;5912;51.034;6.984;2023-09-08T02:43:57;6.80;;;4.93;;
11711;SDS011;5912;51.034;6.984;2023-09-08T02:46:22;5.18;;;4.68;;
11711;SDS011;5912;51.034;6.984;2023-09-08T02:48:48;5.95;;;5.05;;
11711;SDS011;5912;51.034;6.984;2023-09-08T02:51:13;6.47;;;5.10;;
11711;SDS011;5912;51.034;6.984;2023-09-08T02:53:40;6.47;;;5.00;;
11711;SDS011;5912;51.034;6.984;2023-09-08T02:56:05;5.57;;;4.43;;
11711;SDS011;5912;51.034;6.984;2023-09-08T02:58:30;4.53;;;4.13;;
11711;SDS011;5912;51.034;6.984;2023-09-08T03:01:03;5.95;;;4.72;;
11711;SDS011;5912;51.034;6.984;2023-09-08T03:03:34;4.90;;;4.43;;
11711;SDS011;5912;51.034;6.984;2023-09-08T03:06:00;6.00;;;4.88;;
11711;SDS011;5912;51.034;6.984;2023-09-08T03:08:28;6.72;;;4.45;;
11711;SDS011;5912;51.034;6.984;2023-09-08T03:10:55;6.40;;;4.38;;
11711;SDS011;5912;51.034;6.984;2023-09-08T03:13:21;5.43;;;4.93;;
11711;SDS011;5912;51.034;6.984;2023-09-08T03:15:47;5.55;;;4.80;;
11711;SDS011;5912;51.034;6.984;2023-09-08T03:18:12;8.18;;;4.40;;
11711;SDS011;5912;51.034;6.984;2023-09-08T03:20:37;5.60;;;4.32;;
11711;SDS011;5912;51.034;6.984;2023-09-08T03:23:02;5.35;;;4.45;;
11711;SDS011;5912;51.034;6.984;2023-09-08T03:25:28;6.00;;;4.85;;
11711;SDS011;5912;51.034;6.984;2023-09-08T03:27:53;4.70;;;4.18;;
11711;SDS011;5912;51.034;6.984;2023-09-08T03:30:18;7.20;;;4.70;;
11711;SDS011;5912;51.034;6.984;2023-09-08T03:32:44;5.07;;;4.60;;
11711;SDS011;5912;51.034;6.984;2023-09-08T03:35:09;6.40;;;4.78;;
11711;SDS011;5912;51.034;6.984;2023-09-08T03:37:35;5.18;;;4.65;;
11711;SDS011;5912;51.034;6.984;2023-09-08T03:40:00;6.35;;;5.15;;
11711;SDS011;5912;51.034;6.984;2023-09-08T03:42:26;5.35;;;4.85;;
11711;SDS011;5912;51.034;6.984;2023-09-08T03:45:00;5.22;;;4.72;;
11711;SDS011;5912;51.034;6.984;2023-09-08T03:47:28;5.65;;;4.80;;
11711;SDS011;5912;51.034;6.984;2023-09-08T03:49:57;7.13;;;5.30;;
11711;SDS011;5912;51.034;6.984;2023-09-08T03:52:24;5.18;;;4.68;;
11711;SDS011;5912;51.034;6.984;2023-09-08T03:54:53;5.63;;;4.70;;
11711;SDS011;5912;51.034;6.984;2023-09-08T03:57:22;5.50;;;4.95;;
11711;SDS011;5912;51.034;6.984;2023-09-08T03:59:47;8.38;;;4.80;;
11711;SDS011;5912;51.034;6.984;2023-09-08T04:02:15;5.95;;;5.30;;
11711;SDS011;5912;51.034;6.984;2023-09-08T04:05:01;7.43;;;4.85;;
11711;SDS011;5912;51.034;6.984;2023-09-08T04:07:32;7.20;;;5.20;;
11711;SDS011;5912;51.034;6.984;2023-09-08T04:10:03;7.07;;;5.05;;
11711;SDS011;5912;51.034;6.984;2023-09-08T04:12:29;6.30;;;5.28;;
11711;SDS011;5912;51.034;6.984;2023-09-08T04:14:55;6.80;;;5.03;;
11711;SDS011;5912;51.034;6.984;2023-09-08T04:17:20;5.68;;;5.15;;
11711;SDS011;5912;51.034;6.984;2023-09-08T04:19:45;5.90;;;5.30;;
11711;SDS011;5912;51.034;6.984;2023-09-08T04:22:11;6.60;;;5.20;;
11711;SDS011;5912;51.034;6.984;2023-09-08T04:24:36;6.35;;;5.38;;
11711;SDS011;5912;51.034;6.984;2023-09-08T04:27:03;6.07;;;5.35;;
11711;SDS011;5912;51.034;6.984;2023-09-08T04:29:29;6.97;;;5.45;;
11711;SDS011;5912;51.034;6.984;2023-09-08T04:31:54;5.22;;;4.72;;
11711;SDS011;5912;51.034;6.984;2023-09-08T04:34:20;7.20;;;5.55;;
11711;SDS011;5912;51.034;6.984;2023-09-08T04:36:45;5.55;;;4.68;;
11711;SDS011;5912;51.034;6.984;2023-09-08T04:41:56;6.20;;;5.28;;
11711;SDS011;5912;51.034;6.984;2023-09-08T04:44:21;5.65;;;5.00;;
11711;SDS011;5912;51.034;6.984;2023-09-08T04:46:47;5.38;;;4.88;;
11711;SDS011;5912;51.034;6.984;2023-09-08T04:49:13;9.20;;;5.88;;
11711;SDS011;5912;51.034;6.984;2023-09-08T04:51:38;7.13;;;5.20;;
11711;SDS011;5912;51.034;6.984;2023-09-08T04:54:03;6.53;;;5.10;;
11711;SDS011;5912;51.034;6.984;2023-09-08T04:56:29;5.47;;;4.82;;
11711;SDS011;5912;51.034;6.984;2023-09-08T04:58:54;5.50;;;4.90;;
11711;SDS011;5912;51.034;6.984;2023-09-08T05:01:20;5.70;;;5.10;;
11711;SDS011;5912;51.034;6.984;2023-09-08T05:03:45;7.63;;;4.80;;
11711;SDS011;5912;51.034;6.984;2023-09-08T05:06:11;5.82;;;4.88;;
11711;SDS011;5912;51.034;6.984;2023-09-08T05:08:36;10.57;;;5.63;;
11711;SDS011;5912;51.034;6.984;2023-09-08T05:11:01;5.70;;;5.10;;
11711;SDS011;5912;51.034;6.984;2023-09-08T05:13:27;6.40;;;4.95;;
11711;SDS011;5912;51.034;6.984;2023-09-08T05:15:53;5.68;;;4.60;;
11711;SDS011;5912;51.034;6.984;2023-09-08T05:18:25;5.63;;;5.13;;
11711;SDS011;5912;51.034;6.984;2023-09-08T05:20:53;5.40;;;4.82;;
11711;SDS011;5912;51.034;6.984;2023-09-08T05:23:18;5.03;;;4.53;;
11711;SDS011;5912;51.034;6.984;2023-09-08T05:25:44;5.35;;;4.85;;
11711;SDS011;5912;51.034;6.984;2023-09-08T05:28:09;7.13;;;4.82;;
11711;SDS011;5912;51.034;6.984;2023-09-08T05:30:35;5.70;;;4.55;;
11711;SDS011;5912;51.034;6.984;2023-09-08T05:33:00;4.85;;;4.35;;
11711;SDS011;5912;51.034;6.984;2023-09-08T05:35:26;5.20;;;4.70;;
11711;SDS011;5912;51.034;6.984;2023-09-08T05:37:51;5.65;;;5.05;;
11711;SDS011;5912;51.034;6.984;2023-09-08T05:40:17;7.78;;;4.75;;
11711;SDS011;5912;51.034;6.984;2023-09-08T05:42:43;5.88;;;5.28;;
11711;SDS011;5912;51.034;6.984;2023-09-08T05:45:09;6.47;;;4.72;;
11711;SDS011;5912;51.034;6.984;2023-09-08T05:47:35;7.28;;;5.35;;
11711;SDS011;5912;51.034;6.984;2023-09-08T05:50:01;6.13;;;4.90;;
11711;SDS011;5912;51.034;6.984;2023-09-08T05:52:27;5.03;;;4.55;;
11711;SDS011;5912;51.034;6.984;2023-09-08T05:54:53;5.20;;;4.70;;
11711;SDS011;5912;51.034;6.984;2023-09-08T05:57:19;5.28;;;4.78;;
11711;SDS011;5912;51.034;6.984;2023-09-08T05:59:44;6.90;;;4.72;;
11711;SDS011;5912;51.034;6.984;2023-09-08T06:02:09;6.03;;;5.20;;
11711;SDS011;5912;51.034;6.984;2023-09-08T06:04:35;5.20;;;4.57;;
11711;SDS011;5912;51.034;6.984;2023-09-08T06:07:00;5.53;;;4.97;;
11711;SDS011;5912;51.034;6.984;2023-09-08T06:12:11;5.50;;;4.15;;
11711;SDS011;5912;51.034;6.984;2023-09-08T06:14:36;5.28;;;4.50;;
11711;SDS011;5912;51.034;6.984;2023-09-08T06:17:02;5.32;;;4.68;;
11711;SDS011;5912;51.034;6.984;2023-09-08T06:19:27;5.10;;;4.60;;
11711;SDS011;5912;51.034;6.984;2023-09-08T06:21:52;5.50;;;4.40;;
11711;SDS011;5912;51.034;6.984;2023-09-08T06:24:18;5.28;;;4.40;;
11711;SDS011;5912;51.034;6.984;2023-09-08T06:26:44;6.55;;;5.07;;
11711;SDS011;5912;51.034;6.984;2023-09-08T06:29:09;5.20;;;4.22;;
11711;SDS011;5912;51.034;6.984;2023-09-08T06:31:35;5.38;;;4.78;;
11711;SDS011;5912;51.034;6.984;2023-09-08T06:34:00;7.05;;;4.80;;
11711;SDS011;5912;51.034;6.984;2023-09-08T06:42:47;5.43;;;4.30;;
11711;SDS011;5912;51.034;6.984;2023-09-08T06:45:12;5.10;;;4.30;;
11711;SDS011;5912;51.034;6.984;2023-09-08T06:47:38;5.88;;;4.75;;
11711;SDS011;5912;51.034;6.984;2023-09-08T06:50:03;4.22;;;3.83;;
11711;SDS011;5912;51.034;6.984;2023-09-08T06:52:29;4.63;;;3.97;;
11711;SDS011;5912;51.034;6.984;2023-09-08T06:54:54;6.20;;;3.85;;
11711;SDS011;5912;51.034;6.984;2023-09-08T06:57:20;4.00;;;3.20;;
11711;SDS011;5912;51.034;6.984;2023-09-08T06:59:45;4.30;;;3.90;;
11711;SDS011;5912;51.034;6.984;2023-09-08T07:02:11;3.50;;;3.20;;
11711;SDS011;5912;51.034;6.984;2023-09-08T07:04:36;4.15;;;3.75;;
11711;SDS011;5912;51.034;6.984;2023-09-08T07:07:01;5.05;;;3.45;;
11711;SDS011;5912;51.034;6.984;2023-09-08T07:09:32;6.90;;;3.40;;
11711;SDS011;5912;51.034;6.984;2023-09-08T07:11:59;3.65;;;3.35;;
11711;SDS011;5912;51.034;6.984;2023-09-08T07:14:25;4.85;;;3.67;;
11711;SDS011;5912;51.034;6.984;2023-09-08T07:16:50;5.43;;;3.75;;
11711;SDS011;5912;51.034;6.984;2023-09-08T07:19:15;3.38;;;3.03;;
11711;SDS011;5912;51.034;6.984;2023-09-08T07:21:40;5.03;;;3.22;;
11711;SDS011;5912;51.034;6.984;2023-09-08T07:24:06;3.45;;;2.75;;
11711;SDS011;5912;51.034;6.984;2023-09-08T07:26:32;5.18;;;3.40;;
11711;SDS011;5912;51.034;6.984;2023-09-08T07:28:57;4.88;;;3.33;;
11711;SDS011;5912;51.034;6.984;2023-09-08T07:31:22;4.30;;;3.05;;
11711;SDS011;5912;51.034;6.984;2023-09-08T07:33:48;4.32;;;3.15;;
11711;SDS011;5912;51.034;6.984;2023-09-08T07:36:13;4.30;;;3.25;;
11711;SDS011;5912;51.034;6.984;2023-09-08T07:38:38;5.85;;;3.13;;
11711;SDS011;5912;51.034;6.984;2023-09-08T07:41:04;4.18;;;3.10;;
11711;SDS011;5912;51.034;6.984;2023-09-08T07:43:29;3.47;;;2.90;;
11711;SDS011;5912;51.034;6.984;2023-09-08T07:45:55;3.30;;;3.00;;
11711;SDS011;5912;51.034;6.984;2023-09-08T07:48:20;4.20;;;3.20;;
11711;SDS011;5912;51.034;6.984;2023-09-08T07:50:46;4.50;;;3.00;;
11711;SDS011;5912;51.034;6.984;2023-09-08T07:53:11;3.90;;;2.92;;
11711;SDS011;5912;51.034;6.984;2023-09-08T07:55:36;5.35;;;3.15;;
11711;SDS011;5912;51.034;6.984;2023-09-08T07:58:02;3.35;;;3.05;;
11711;SDS011;5912;51.034;6.984;2023-09-08T08:00:30;6.22;;;2.90;;
11711;SDS011;5912;51.034;6.984;2023-09-08T08:02:56;2.90;;;2.70;;
11711;SDS011;5912;51.034;6.984;2023-09-08T08:05:22;3.50;;;3.05;;
11711;SDS011;5912;51.034;6.984;2023-09-08T08:07:48;5.97;;;3.35;;
11711;SDS011;5912;51.034;6.984;2023-09-08T08:10:14;4.10;;;3.13;;
11711;SDS011;5912;51.034;6.984;2023-09-08T08:12:40;4.55;;;2.85;;
11711;SDS011;5912;51.034;6.984;2023-09-08T08:15:06;3.28;;;2.85;;
11711;SDS011;5912;51.034;6.984;2023-09-08T08:17:32;5.88;;;2.90;;
11711;SDS011;5912;51.034;6.984;2023-09-08T08:19:57;3.35;;;2.80;;
11711;SDS011;5912;51.034;6.984;2023-09-08T08:22:23;4.10;;;2.90;;
11711;SDS011;5912;51.034;6.984;2023-09-08T08:24:50;3.90;;;2.60;;
11711;SDS011;5912;51.034;6.984;2023-09-08T08:27:15;3.13;;;2.78;;
11711;SDS011;5912;51.034;6.984;2023-09-08T08:29:40;5.03;;;3.00;;
11711;SDS011;5912;51.034;6.984;2023-09-08T08:32:06;3.42;;;2.92;;
11711;SDS011;5912;51.034;6.984;2023-09-08T08:34:31;4.38;;;3.03;;
11711;SDS011;5912;51.034;6.984;2023-09-08T08:36:56;4.65;;;3.45;;
11711;SDS011;5912;51.034;6.984;2023-09-08T08:39:22;4.65;;;2.90;;
11711;SDS011;5912;51.034;6.984;2023-09-08T08:41:47;4.60;;;3.03;;
11711;SDS011;5912;51.034;6.984;2023-09-08T08:44:12;6.03;;;3.13;;
11711;SDS011;5912;51.034;6.984;2023-09-08T08:46:40;5.00;;;3.08;;
11711;SDS011;5912;51.034;6.984;2023-09-08T08:49:06;3.50;;;3.20;;
11711;SDS011;5912;51.034;6.984;2023-09-08T08:51:33;3.03;;;2.60;;
11711;SDS011;5912;51.034;6.984;2023-09-08T08:54:01;4.13;;;3.03;;
11711;SDS011;5912;51.034;6.984;2023-09-08T08:56:29;4.10;;;2.80;;
11711;SDS011;5912;51.034;6.984;2023-09-08T08:58:57;3.00;;;2.60;;
11711;SDS011;5912;51.034;6.984;2023-09-08T09:01:23;3.30;;;2.88;;
11711;SDS011;5912;51.034;6.984;2023-09-08T09:03:51;5.03;;;2.97;;
11711;SDS011;5912;51.034;6.984;2023-09-08T09:06:16;3.33;;;2.75;;
11711;SDS011;5912;51.034;6.984;2023-09-08T09:08:43;3.00;;;2.55;;
11711;SDS011;5912;51.034;6.984;2023-09-08T09:11:09;4.28;;;2.92;;
11711;SDS011;5912;51.034;6.984;2023-09-08T09:13:35;3.10;;;2.80;;
11711;SDS011;5912;51.034;6.984;2023-09-08T09:16:00;3.42;;;3.10;;
11711;SDS011;5912;51.034;6.984;2023-09-08T09:18:28;3.30;;;3.00;;
11711;SDS011;5912;51.034;6.984;2023-09-08T09:20:56;2.63;;;2.42;;
11711;SDS011;5912;51.034;6.984;2023-09-08T09:23:30;6.85;;;2.90;;
11711;SDS011;5912;51.034;6.984;2023-09-08T09:25:57;3.17;;;2.88;;
11711;SDS011;5912;51.034;6.984;2023-09-08T09:28:23;4.10;;;2.60;;
11711;SDS011;5912;51.034;6.984;2023-09-08T09:30:50;3.90;;;2.92;;
11711;SDS011;5912;51.034;6.984;2023-09-08T09:33:17;2.83;;;2.63;;
11711;SDS011;5912;51.034;6.984;2023-09-08T09:35:44;4.47;;;2.92;;
11711;SDS011;5912;51.034;6.984;2023-09-08T09:38:11;5.35;;;3.03;;
11711;SDS011;5912;51.034;6.984;2023-09-08T09:40:37;3.38;;;2.78;;
11711;SDS011;5912;51.034;6.984;2023-09-08T09:43:04;5.25;;;2.90;;
11711;SDS011;5912;51.034;6.984;2023-09-08T09:45:30;3.47;;;2.63;;
11711;SDS011;5912;51.034;6.984;2023-09-08T09:47:58;4.32;;;2.63;;
11711;SDS011;5912;51.034;6.984;2023-09-08T09:50:30;2.90;;;2.70;;
11711;SDS011;5912;51.034;6.984;2023-09-08T09:53:07;3.03;;;2.75;;
11711;SDS011;5912;51.034;6.984;2023-09-08T09:55:36;3.30;;;2.80;;
11711;SDS011;5912;51.034;6.984;2023-09-08T09:58:03;3.90;;;2.88;;
11711;SDS011;5912;51.034;6.984;2023-09-08T10:00:30;3.47;;;2.63;;
11711;SDS011;5912;51.034;6.984;2023-09-08T10:02:58;3.47;;;2.80;;
11711;SDS011;5912;51.034;6.984;2023-09-08T10:05:24;3.00;;;2.65;;
11711;SDS011;5912;51.034;6.984;2023-09-08T10:07:50;2.92;;;2.42;;
11711;SDS011;5912;51.034;6.984;2023-09-08T10:10:16;3.30;;;3.00;;
11711;SDS011;5912;51.034;6.984;2023-09-08T10:12:46;3.80;;;2.35;;
11711;SDS011;5912;51.034;6.984;2023-09-08T10:15:19;4.43;;;2.75;;
11711;SDS011;5912;51.034;6.984;2023-09-08T10:17:46;4.00;;;2.75;;
11711;SDS011;5912;51.034;6.984;2023-09-08T10:20:16;3.60;;;2.55;;
11711;SDS011;5912;51.034;6.984;2023-09-08T10:22:42;4.10;;;2.83;;
11711;SDS011;5912;51.034;6.984;2023-09-08T10:25:08;5.53;;;2.63;;
11711;SDS011;5912;51.034;6.984;2023-09-08T10:27:34;4.15;;;3.00;;
11711;SDS011;5912;51.034;6.984;2023-09-08T10:30:03;2.70;;;2.40;;
11711;SDS011;5912;51.034;6.984;2023-09-08T10:32:31;3.75;;;2.85;;
11711;SDS011;5912;51.034;6.984;2023-09-08T10:34:58;3.28;;;2.85;;
11711;SDS011;5912;51.034;6.984;2023-09-08T10:37:26;3.10;;;2.80;;
11711;SDS011;5912;51.034;6.984;2023-09-08T10:39:54;2.90;;;2.70;;
11711;SDS011;5912;51.034;6.984;2023-09-08T10:42:40;2.75;;;2.40;;
11711;SDS011;5912;51.034;6.984;2023-09-08T10:45:18;2.75;;;2.55;;
11711;SDS011;5912;51.034;6.984;2023-09-08T10:50:18;2.80;;;2.60;;
11711;SDS011;5912;51.034;6.984;2023-09-08T10:52:44;4.38;;;2.70;;
11711;SDS011;5912;51.034;6.984;2023-09-08T10:55:11;3.45;;;3.15;;
11711;SDS011;5912;51.034;6.984;2023-09-08T10:57:37;2.97;;;2.63;;
11711;SDS011;5912;51.034;6.984;2023-09-08T11:00:09;2.92;;;2.63;;
11711;SDS011;5912;51.034;6.984;2023-09-08T11:05:04;4.95;;;2.80;;
11711;SDS011;5912;51.034;6.984;2023-09-08T11:07:34;2.70;;;2.47;;
11711;SDS011;5912;51.034;6.984;2023-09-08T11:10:00;3.40;;;2.67;;
11711;SDS011;5912;51.034;6.984;2023-09-08T11:12:27;2.80;;;2.50;;
11711;SDS011;5912;51.034;6.984;2023-09-08T11:14:52;3.42;;;2.60;;
11711;SDS011;5912;51.034;6.984;2023-09-08T11:17:18;3.25;;;2.67;;
11711;SDS011;5912;51.034;6.984;2023-09-08T11:19:47;2.80;;;2.45;;
11711;SDS011;5912;51.034;6.984;2023-09-08T11:22:14;4.78;;;2.47;;
11711;SDS011;5912;51.034;6.984;2023-09-08T11:24:42;2.60;;;2.40;;
11711;SDS011;5912;51.034;6.984;2023-09-08T11:27:08;2.70;;;2.50;;
11711;SDS011;5912;51.034;6.984;2023-09-08T11:29:34;3.92;;;2.33;;
11711;SDS011;5912;51.034;6.984;2023-09-08T11:32:00;3.25;;;2.45;;
11711;SDS011;5912;51.034;6.984;2023-09-08T11:34:26;2.58;;;2.22;;
11711;SDS011;5912;51.034;6.984;2023-09-08T11:36:52;6.22;;;2.67;;
11711;SDS011;5912;51.034;6.984;2023-09-08T11:39:17;2.60;;;2.25;;
11711;SDS011;5912;51.034;6.984;2023-09-08T11:41:43;3.33;;;2.85;;
11711;SDS011;5912;51.034;6.984;2023-09-08T11:44:08;3.30;;;2.33;;
11711;SDS011;5912;51.034;6.984;2023-09-08T11:46:34;3.13;;;2.20;;
11711;SDS011;5912;51.034;6.984;2023-09-08T11:49:00;4.28;;;2.55;;
11711;SDS011;5912;51.034;6.984;2023-09-08T11:51:25;3.60;;;2.67;;
11711;SDS011;5912;51.034;6.984;2023-09-08T11:53:51;2.60;;;2.40;;
11711;SDS011;5912;51.034;6.984;2023-09-08T11:56:17;2.90;;;2.40;;
11711;SDS011;5912;51.034;6.984;2023-09-08T11:58:42;5.07;;;3.20;;
11711;SDS011;5912;51.034;6.984;2023-09-08T12:01:09;3.00;;;2.38;;
11711;SDS011;5912;51.034;6.984;2023-09-08T12:03:35;2.50;;;2.30;;
11711;SDS011;5912;51.034;6.984;2023-09-08T12:06:28;2.50;;;2.30;;
11711;SDS011;5912;51.034;6.984;2023-09-08T12:08:55;2.63;;;2.42;;
11711;SDS011;5912;51.034;6.984;2023-09-08T12:11:21;2.75;;;2.40;;
11711;SDS011;5912;51.034;6.984;2023-09-08T12:13:46;2.50;;;2.30;;
11711;SDS011;5912;51.034;6.984;2023-09-08T12:16:21;3.40;;;2.33;;
11711;SDS011;5912;51.034;6.984;2023-09-08T12:18:49;2.70;;;2.50;;
11711;SDS011;5912;51.034;6.984;2023-09-08T12:21:15;4.65;;;2.40;;
11711;SDS011;5912;51.034;6.984;2023-09-08T12:23:51;2.90;;;2.67;;
11711;SDS011;5912;51.034;6.984;2023-09-08T12:26:17;4.68;;;2.78;;
11711;SDS011;5912;51.034;6.984;2023-09-08T12:28:43;4.18;;;2.88;;
11711;SDS011;5912;51.034;6.984;2023-09-08T12:31:10;4.47;;;2.72;;
11711;SDS011;5912;51.034;6.984;2023-09-08T12:33:35;4.80;;;3.20;;
11711;SDS011;5912;51.034;6.984;2023-09-08T12:36:17;4.18;;;2.90;;
11711;SDS011;5912;51.034;6.984;2023-09-08T12:38:50;4.75;;;3.45;;
11711;SDS011;5912;51.034;6.984;2023-09-08T12:41:16;5.30;;;2.88;;
11711;SDS011;5912;51.034;6.984;2023-09-08T12:43:42;3.85;;;3.40;;
11711;SDS011;5912;51.034;6.984;2023-09-08T12:46:07;3.40;;;3.10;;
11711;SDS011;5912;51.034;6.984;2023-09-08T12:48:33;6.53;;;3.20;;
11711;SDS011;5912;51.034;6.984;2023-09-08T12:50:58;4.72;;;3.70;;
11711;SDS011;5912;51.034;6.984;2023-09-08T12:53:24;3.53;;;2.90;;
11711;SDS011;5912;51.034;6.984;2023-09-08T12:55:49;4.57;;;3.65;;
11711;SDS011;5912;51.034;6.984;2023-09-08T12:58:15;3.13;;;2.83;;
11711;SDS011;5912;51.034;6.984;2023-09-08T13:00:42;3.35;;;3.05;;
11711;SDS011;5912;51.034;6.984;2023-09-08T13:03:07;3.65;;;2.58;;
11711;SDS011;5912;51.034;6.984;2023-09-08T13:05:33;3.17;;;2.83;;
11711;SDS011;5912;51.034;6.984;2023-09-08T13:07:59;3.10;;;2.78;;
11711;SDS011;5912;51.034;6.984;2023-09-08T13:10:24;3.13;;;2.88;;
11711;SDS011;5912;51.034;6.984;2023-09-08T13:12:50;4.05;;;3.25;;
11711;SDS011;5912;51.034;6.984;2023-09-08T13:15:15;4.25;;;3.13;;
11711;SDS011;5912;51.034;6.984;2023-09-08T13:17:41;3.17;;;2.85;;
11711;SDS011;5912;51.034;6.984;2023-09-08T13:20:06;3.83;;;3.15;;
11711;SDS011;5912;51.034;6.984;2023-09-08T13:22:32;3.53;;;2.97;;
11711;SDS011;5912;51.034;6.984;2023-09-08T13:24:58;5.13;;;2.72;;
11711;SDS011;5912;51.034;6.984;2023-09-08T13:27:23;2.80;;;2.60;;
11711;SDS011;5912;51.034;6.984;2023-09-08T13:29:49;3.03;;;2.72;;
11711;SDS011;5912;51.034;6.984;2023-09-08T13:32:14;3.10;;;2.60;;
11711;SDS011;5912;51.034;6.984;2023-09-08T13:34:40;4.63;;;2.63;;
11711;SDS011;5912;51.034;6.984;2023-09-08T13:37:05;4.68;;;2.60;;
11711;SDS011;5912;51.034;6.984;2023-09-08T13:39:31;2.80;;;2.58;;
11711;SDS011;5912;51.034;6.984;2023-09-08T13:41:58;4.35;;;3.00;;
11711;SDS011;5912;51.034;6.984;2023-09-08T13:44:25;4.07;;;3.03;;
11711;SDS011;5912;51.034;6.984;2023-09-08T13:46:50;5.88;;;3.15;;
11711;SDS011;5912;51.034;6.984;2023-09-08T13:49:17;3.55;;;3.05;;
11711;SDS011;5912;51.034;6.984;2023-09-08T13:51:43;3.72;;;2.83;;
11711;SDS011;5912;51.034;6.984;2023-09-08T13:54:10;3.33;;;3.03;;
11711;SDS011;5912;51.034;6.984;2023-09-08T13:56:37;3.95;;;2.53;;
11711;SDS011;5912;51.034;6.984;2023-09-08T13:59:04;3.10;;;2.78;;
11711;SDS011;5912;51.034;6.984;2023-09-08T14:01:29;2.72;;;2.53;;
11711;SDS011;5912;51.034;6.984;2023-09-08T14:03:57;3.25;;;2.88;;
11711;SDS011;5912;51.034;6.984;2023-09-08T14:06:23;3.30;;;3.00;;
11711;SDS011;5912;51.034;6.984;2023-09-08T14:08:51;5.60;;;3.13;;
11711;SDS011;5912;51.034;6.984;2023-09-08T14:11:16;5.88;;;2.85;;
11711;SDS011;5912;51.034;6.984;2023-09-08T14:13:42;3.50;;;3.13;;
11711;SDS011;5912;51.034;6.984;2023-09-08T14:16:08;2.83;;;2.60;;
11711;SDS011;5912;51.034;6.984;2023-09-08T14:18:33;3.30;;;2.92;;
11711;SDS011;5912;51.034;6.984;2023-09-08T14:20:59;2.50;;;2.30;;
11711;SDS011;5912;51.034;6.984;2023-09-08T14:23:24;3.15;;;2.70;;
11711;SDS011;5912;51.034;6.984;2023-09-08T14:25:50;2.95;;;2.60;;
11711;SDS011;5912;51.034;6.984;2023-09-08T14:28:16;3.25;;;2.85;;
11711;SDS011;5912;51.034;6.984;2023-09-08T14:30:41;3.15;;;2.85;;
11711;SDS011;5912;51.034;6.984;2023-09-08T14:33:06;3.50;;;3.08;;
11711;SDS011;5912;51.034;6.984;2023-09-08T14:35:32;4.00;;;2.90;;
11711;SDS011;5912;51.034;6.984;2023-09-08T14:37:58;5.50;;;3.13;;
11711;SDS011;5912;51.034;6.984;2023-09-08T14:40:23;5.50;;;2.72;;
11711;SDS011;5912;51.034;6.984;2023-09-08T14:42:49;3.03;;;2.70;;
11711;SDS011;5912;51.034;6.984;2023-09-08T14:45:14;2.88;;;2.67;;
11711;SDS011;5912;51.034;6.984;2023-09-08T14:47:39;3.33;;;2.75;;
11711;SDS011;5912;51.034;6.984;2023-09-08T14:50:05;4.25;;;2.65;;
11711;SDS011;5912;51.034;6.984;2023-09-08T14:52:30;3.55;;;2.78;;
11711;SDS011;5912;51.034;6.984;2023-09-08T14:54:56;3.72;;;2.85;;
11711;SDS011;5912;51.034;6.984;2023-09-08T14:57:21;2.95;;;2.60;;
11711;SDS011;5912;51.034;6.984;2023-09-08T14:59:46;2.78;;;2.58;;
11711;SDS011;5912;51.034;6.984;2023-09-08T15:02:12;3.00;;;2.67;;
11711;SDS011;5912;51.034;6.984;2023-09-08T15:04:37;3.50;;;2.95;;
11711;SDS011;5912;51.034;6.984;2023-09-08T15:07:03;3.85;;;3.15;;
11711;SDS011;5912;51.034;6.984;2023-09-08T15:09:28;3.92;;;3.13;;
11711;SDS011;5912;51.034;6.984;2023-09-08T15:11:54;3.28;;;2.97;;
11711;SDS011;5912;51.034;6.984;2023-09-08T15:14:19;4.32;;;3.25;;
11711;SDS011;5912;51.034;6.984;2023-09-08T15:16:44;4.63;;;2.90;;